Time;durP1;ratioP1;P1;durP2;ratioP2;P2;SDS_P1;SDS_P2;PMS_P1;PMS_P2;Temp;Humidity;BMP_temperature;BMP_pressure;BME280_temperature;BME280_humidity;BME280_pressure;Samples;Min_cycle;Max_cycle;Signal;HPM_P1;HPM_P2
2023/09/28 00:01:18;;;;;;;;;;;20.80;72.40;;;21.07;46.15;98755.00;5042271;27;124324;-77
2023/09/28 00:03:47;;;;;;;;;;;20.80;72.40;;;21.09;45.96;98752.59;5048017;27;124493;-77
2023/09/28 00:06:13;;;;;;;;;;;20.80;72.40;;;21.09;45.56;98752.59;5077819;27;114661;-78
2023/09/28 00:08:40;;;;;;;;;;;20.80;72.20;;;21.09;45.93;98758.22;5076533;27;113890;-76
2023/09/28 00:11:06;;;;;;;;;;;20.80;72.20;;;21.08;45.72;98751.00;5064475;27;124797;-77
2023/09/28 00:13:32;;;;;;;;;;;20.80;72.20;;;21.07;45.44;98752.19;5024252;27;123842;-77
2023/09/28 00:15:58;;;;;;;;;;;20.80;72.10;;;21.07;45.55;98755.00;5041706;27;113851;-76
2023/09/28 00:18:25;;;;;;;;;;;20.80;71.90;;;21.07;45.49;98750.19;5065097;27;113675;-77
2023/09/28 00:20:53;;;;;;;;;;;20.80;71.80;;;21.06;45.61;98753.38;5027090;28;124018;-77
2023/09/28 00:23:22;;;;;;;;;;;20.80;71.80;;;21.06;45.81;98765.41;5021865;27;123812;-78
2023/09/28 00:25:49;;;;;;;;;;;20.80;72.10;;;21.06;45.64;98765.41;5021524;27;114485;-77
2023/09/28 00:28:16;;;;;;;;;;;20.80;72.30;;;21.03;45.70;98763.38;5027879;27;113562;-76
2023/09/28 00:30:44;;;;;;;;;;;20.70;72.40;;;21.00;46.12;98766.97;5027068;27;124043;-76
2023/09/28 00:33:11;;;;;;;;;;;20.70;72.60;;;21.00;46.27;98772.56;5039911;27;123967;-77
2023/09/28 00:35:37;;;;;;;;;;;20.70;73.10;;;20.96;45.98;98763.31;5025082;27;114339;-77
2023/09/28 00:38:05;;;;;;;;;;;20.70;72.80;;;20.92;45.98;98770.88;5026070;27;113597;-80
2023/09/28 00:40:31;;;;;;;;;;;20.70;72.60;;;20.90;46.12;98762.84;5058484;27;124146;-77
2023/09/28 00:42:59;;;;;;;;;;;20.70;72.80;;;20.91;46.04;98772.88;5025962;28;124653;-77
2023/09/28 00:45:26;;;;;;;;;;;20.70;73.00;;;20.86;46.89;98780.84;5044320;27;115399;-77
2023/09/28 00:48:01;;;;;;;;;;;20.60;74.00;;;20.77;47.21;98778.31;5027741;27;114938;-78
2023/09/28 00:50:31;;;;;;;;;;;20.50;74.00;;;20.73;47.01;98778.25;5029664;27;124274;-75
2023/09/28 00:52:59;;;;;;;;;;;20.50;74.20;;;20.72;47.53;98779.47;5035001;27;124240;-76
2023/09/28 00:55:28;;;;;;;;;;;20.50;74.50;;;20.72;47.14;98775.84;5028996;27;114326;-78
2023/09/28 00:57:58;;;;;;;;;;;20.50;74.50;;;20.71;47.27;98777.84;5026356;27;113811;-78
2023/09/28 01:00:33;;;;;;;;;;;20.50;74.70;;;20.70;47.19;98781.84;5026494;27;124805;-77
2023/09/28 01:03:08;;;;;;;;;;;20.50;74.60;;;20.68;47.04;98781.41;5027957;27;124591;-77
2023/09/28 01:05:38;;;;;;;;;;;20.40;74.40;;;20.67;47.06;98781.78;5015908;27;113529;-77
2023/09/28 01:08:21;;;;;;;;;;;20.40;74.60;;;20.66;47.37;98788.59;5014137;28;112804;-77
2023/09/28 01:10:47;;;;;;;;;;;20.40;74.90;;;20.67;47.65;98788.22;5025776;27;124278;-78
2023/09/28 01:13:20;;;;;;;;;;;20.40;75.20;;;20.63;48.08;98776.16;5024826;27;124724;-79
2023/09/28 01:15:49;;;;;;;;;;;20.40;75.50;;;20.58;48.50;98784.91;5029443;27;113597;-80
2023/09/28 01:18:17;;;;;;;;;;;20.40;76.10;;;20.55;48.52;98782.81;5060205;27;113771;-79
2023/09/28 01:20:45;;;;;;;;;;;20.30;76.20;;;20.54;48.41;98784.03;5012806;28;123762;-76
2023/09/28 01:23:11;;;;;;;;;;;20.30;76.50;;;20.52;48.53;98780.75;5019774;27;124309;-76
2023/09/28 01:25:38;;;;;;;;;;;20.30;76.90;;;20.49;48.60;98792.75;5019863;28;114263;-80
2023/09/28 01:28:06;;;;;;;;;;;20.20;76.90;;;20.47;49.03;98790.31;5026644;27;113580;-76
2023/09/28 01:30:33;;;;;;;;;;;20.30;77.10;;;20.46;48.94;98776.66;5026256;28;124241;-77
2023/09/28 01:33:00;;;;;;;;;;;20.30;77.20;;;20.44;48.59;98787.44;5029424;27;123085;-77
2023/09/28 01:35:28;;;;;;;;;;;20.20;77.10;;;20.43;48.62;98795.06;5043829;27;115452;-76
2023/09/28 01:38:10;;;;;;;;;;;20.20;77.40;;;20.42;48.76;98787.84;5060589;27;114759;-79
2023/09/28 01:40:39;;;;;;;;;;;20.20;77.20;;;20.42;48.69;98792.66;5026900;28;124249;-77
2023/09/28 01:43:06;;;;;;;;;;;20.20;77.40;;;20.41;48.85;98791.00;5026921;27;125235;-77
2023/09/28 01:45:33;;;;;;;;;;;20.20;77.50;;;20.39;49.02;98787.78;5022659;27;114677;-76
2023/09/28 01:48:00;;;;;;;;;;;20.20;77.80;;;20.38;49.07;98780.56;5027941;27;113807;-76
2023/09/28 01:50:26;;;;;;;;;;;20.10;78.00;;;20.35;49.32;98779.31;5027701;27;124698;-76
2023/09/28 01:52:53;;;;;;;;;;;20.10;78.20;;;20.33;49.42;98780.88;5026881;27;123983;-78
2023/09/28 01:55:19;;;;;;;;;;;20.10;78.70;;;20.27;49.36;98775.59;5020851;27;114437;-77
2023/09/28 01:57:45;;;;;;;;;;;20.10;78.60;;;20.22;49.66;98795.53;5025445;27;113598;-77
2023/09/28 02:00:22;;;;;;;;;;;20.00;78.70;;;20.14;49.72;98784.59;5025851;27;124150;-78
2023/09/28 02:02:55;;;;;;;;;;;20.00;79.00;;;20.06;49.66;98775.25;5026435;27;124028;-77
2023/09/28 02:05:22;;;;;;;;;;;19.90;78.90;;;20.04;49.64;98774.81;5037225;27;113346;-76
2023/09/28 02:07:49;;;;;;;;;;;19.90;79.70;;;20.03;49.72;98781.63;5026493;27;113739;-77
2023/09/28 02:10:15;;;;;;;;;;;19.90;79.20;;;20.02;49.97;98772.41;5026318;27;124597;-77
2023/09/28 02:12:43;;;;;;;;;;;19.80;79.30;;;20.02;49.85;98774.41;5026200;27;124156;-77
2023/09/28 02:15:14;;;;;;;;;;;19.80;79.60;;;19.96;49.92;98771.13;5059390;27;114705;-80
2023/09/28 02:17:41;;;;;;;;;;;19.80;79.80;;;19.89;50.03;98776.59;5030129;27;113818;-76
2023/09/28 02:20:09;;;;;;;;;;;19.70;79.70;;;19.84;50.33;98774.91;5028715;27;123851;-76
2023/09/28 02:22:43;;;;;;;;;;;19.70;79.90;;;19.81;50.17;98775.66;5028646;27;123115;-77
2023/09/28 02:25:15;;;;;;;;;;;19.70;80.00;;;19.82;50.22;98777.28;5014528;28;115457;-81
2023/09/28 02:27:42;;;;;;;;;;;19.60;80.10;;;19.82;50.57;98782.06;5009957;27;113679;-80
2023/09/28 02:30:15;;;;;;;;;;;19.60;80.40;;;19.82;50.48;98788.50;5026818;27;124300;-76
2023/09/28 02:32:47;;;;;;;;;;;19.60;80.60;;;19.81;50.27;98789.69;5025073;27;124085;-76
2023/09/28 02:35:14;;;;;;;;;;;19.60;80.70;;;19.81;50.47;98789.69;5026951;27;114525;-76
2023/09/28 02:37:44;;;;;;;;;;;19.60;80.70;;;19.80;50.48;98788.06;5061141;27;113846;-76
2023/09/28 02:40:11;;;;;;;;;;;19.60;80.70;;;19.81;50.12;98788.88;5027926;27;123929;-76
2023/09/28 02:42:39;;;;;;;;;;;19.60;80.90;;;19.83;50.46;98795.72;5030286;27;123987;-76
2023/09/28 02:45:13;;;;;;;;;;;19.60;80.90;;;19.81;50.04;98797.28;5028510;27;114520;-77
2023/09/28 02:47:40;;;;;;;;;;;19.60;80.90;;;19.78;50.28;98798.84;5032762;27;113922;-80
2023/09/28 02:50:10;;;;;;;;;;;19.50;80.90;;;19.78;50.52;98806.47;5029242;27;124887;-76
2023/09/28 02:52:41;;;;;;;;;;;19.50;81.10;;;19.75;50.46;98804.41;5028560;27;123826;-77
2023/09/28 02:55:08;;;;;;;;;;;19.50;81.20;;;19.73;50.49;98818.78;5029777;27;114602;-77
2023/09/28 02:57:35;;;;;;;;;;;19.50;81.20;;;19.73;50.64;98821.59;5028381;27;114994;-76
2023/09/28 03:00:11;;;;;;;;;;;19.50;81.40;;;19.76;50.31;98817.22;5062260;27;124208;-77
2023/09/28 03:02:38;;;;;;;;;;;19.50;82.20;;;19.72;50.72;98799.53;5028495;27;124160;-76
2023/09/28 03:05:04;;;;;;;;;;;19.50;81.60;;;19.69;50.61;98801.06;5030681;27;114271;-77
2023/09/28 03:07:31;;;;;;;;;;;19.40;81.60;;;19.64;50.75;98804.19;5031661;27;113148;-76
2023/09/28 03:09:59;;;;;;;;;;;19.40;81.60;;;;;;5031142;27;123301;-76
2023/09/28 03:12:25;;;;;;;;;;;19.40;81.60;;;19.60;50.70;98804.09;5028808;27;124307;-78
2023/09/28 03:14:52;;;;;;;;;;;19.40;81.80;;;19.61;50.56;98810.50;5029628;28;115351;-77
2023/09/28 03:17:18;;;;;;;;;;;19.40;81.90;;;19.62;50.61;98817.75;5028945;27;114656;-77
2023/09/28 03:19:44;;;;;;;;;;;19.40;82.10;;;19.59;50.83;98807.28;5029556;27;124577;-77
2023/09/28 03:22:10;;;;;;;;;;;19.40;82.70;;;19.57;50.76;98810.44;5025486;28;123935;-78
2023/09/28 03:24:37;;;;;;;;;;;19.40;82.00;;;19.55;50.78;98809.19;5013111;27;114470;-77
2023/09/28 03:27:05;;;;;;;;;;;19.30;82.00;;;19.54;50.72;98816.00;5038001;27;113405;-77
2023/09/28 03:29:31;;;;;;;;;;;19.40;82.00;;;19.53;50.77;98809.59;5032403;27;124380;-77
2023/09/28 03:31:57;;;;;;;;;;;19.30;81.90;;;19.54;50.78;98813.19;5028376;27;124090;-77
2023/09/28 03:34:26;;;;;;;;;;;19.30;82.10;;;19.52;50.57;98821.16;5029121;27;114324;-77
2023/09/28 03:36:55;;;;;;;;;;;19.30;82.10;;;19.52;50.76;98823.97;5027958;27;112916;-77
2023/09/28 03:39:21;;;;;;;;;;;19.30;82.20;;;19.53;50.88;98831.19;5021365;27;124239;-77
2023/09/28 03:41:50;;;;;;;;;;;19.30;82.30;;;19.53;50.81;98837.63;5030930;27;124146;-76
2023/09/28 03:44:16;;;;;;;;;;;19.30;82.40;;;19.51;50.49;98828.75;5029205;27;114440;-77
2023/09/28 03:46:42;;;;;;;;;;;19.30;82.50;;;19.50;50.76;98821.53;5030756;27;112644;-77
2023/09/28 03:49:08;;;;;;;;;;;19.20;82.30;;;19.49;50.65;98817.09;5028374;27;124225;-77
2023/09/28 03:51:35;;;;;;;;;;;19.20;82.40;;;19.48;50.91;98812.69;5073752;27;124136;-78
2023/09/28 03:54:01;;;;;;;;;;;19.20;82.50;;;19.47;51.00;98804.66;5043563;27;114466;-77
2023/09/28 03:56:29;;;;;;;;;;;19.20;82.60;;;19.46;50.98;98808.66;5017109;28;114481;-77
2023/09/28 03:58:58;;;;;;;;;;;19.20;82.80;;;19.38;50.91;98814.09;5027310;27;124387;-77
2023/09/28 04:01:26;;;;;;;;;;;19.10;83.10;;;19.28;51.39;98813.91;5028950;27;124292;-77
2023/09/28 04:03:53;;;;;;;;;;;19.10;83.10;;;19.23;51.65;98811.41;5027400;27;115703;-77
2023/09/28 04:06:19;;;;;;;;;;;19.00;83.30;;;19.21;51.65;98820.19;5041046;27;114789;-76
2023/09/28 04:08:48;;;;;;;;;;;19.00;83.30;;;19.19;51.75;98828.13;5062164;27;124403;-77
2023/09/28 04:11:14;;;;;;;;;;;19.00;83.70;;;19.11;51.81;98835.59;5024589;27;123974;-77
2023/09/28 04:13:43;;;;;;;;;;;18.90;83.90;;;18.98;52.38;98836.91;5022853;27;113462;-80
2023/09/28 04:16:09;;;;;;;;;;;18.80;84.70;;;18.86;52.32;98823.88;5028586;27;113880;-82
2023/09/28 04:18:38;;;;;;;;;;;18.70;84.60;;;18.84;52.29;98829.00;5018528;27;124160;-77
2023/09/28 04:21:04;;;;;;;;;;;18.70;84.60;;;18.85;52.32;98838.22;5060683;27;124559;-77
2023/09/28 04:23:30;;;;;;;;;;;18.60;84.70;;;18.89;52.27;98845.53;5019650;27;115224;-77
2023/09/28 04:25:57;;;;;;;;;;;18.60;84.70;;;18.93;52.34;98840.78;5055568;27;113675;-77
2023/09/28 04:28:23;;;;;;;;;;;18.70;84.90;;;18.94;52.01;98850.84;5027264;27;124160;-77
2023/09/28 04:30:51;;;;;;;;;;;18.70;84.80;;;18.95;52.02;98855.25;5028252;27;124145;-77
2023/09/28 04:33:18;;;;;;;;;;;18.70;84.90;;;18.97;52.06;98855.69;5029649;27;113264;-77
2023/09/28 04:35:46;;;;;;;;;;;18.70;84.80;;;19.01;52.04;98854.97;5031121;27;113983;-77
2023/09/28 04:38:13;;;;;;;;;;;18.70;84.80;;;19.04;51.88;98859.81;5027200;27;124650;-77
2023/09/28 04:40:39;;;;;;;;;;;18.70;84.80;;;19.06;51.82;98844.28;5028207;27;124223;-77
2023/09/28 04:43:05;;;;;;;;;;;18.80;84.80;;;19.09;51.77;98839.94;5027771;27;114332;-76
2023/09/28 04:45:32;;;;;;;;;;;18.80;84.80;;;19.12;51.55;98836.38;5019038;27;113654;-77
2023/09/28 04:47:58;;;;;;;;;;;18.80;84.80;;;19.15;51.62;98832.84;5037123;27;122944;-76
2023/09/28 04:50:27;;;;;;;;;;;18.80;84.90;;;19.17;51.77;98827.69;5028017;27;122683;-78
2023/09/28 04:52:55;;;;;;;;;;;18.80;84.90;;;19.18;51.62;98832.09;5027603;27;115284;-77
2023/09/28 04:55:21;;;;;;;;;;;18.80;85.00;;;19.17;51.77;98833.28;5059959;27;113905;-78
2023/09/28 04:57:48;;;;;;;;;;;18.80;84.90;;;19.16;51.64;98840.88;5020641;27;123156;-77
2023/09/28 05:00:16;;;;;;;;;;;18.90;85.00;;;19.16;51.63;98845.69;5045312;27;124039;-78
2023/09/28 05:02:47;;;;;;;;;;;18.90;85.30;;;19.11;51.82;98843.97;5045581;27;114365;-77
2023/09/28 05:05:15;;;;;;;;;;;18.80;85.10;;;19.04;52.18;98840.22;5043742;27;113750;-77
2023/09/28 05:07:42;;;;;;;;;;;18.80;85.20;;;18.98;52.18;98845.31;5045733;27;124270;-77
2023/09/28 05:10:09;;;;;;;;;;;18.70;85.10;;;18.91;52.12;98843.19;5029192;27;124127;-77
2023/09/28 05:12:37;;;;;;;;;;;18.70;85.40;;;18.89;52.31;98848.31;5031716;27;114645;-77
2023/09/28 05:15:04;;;;;;;;;;;18.70;85.40;;;18.89;52.24;98844.72;5036405;27;114422;-76
2023/09/28 05:17:31;;;;;;;;;;;18.60;86.20;;;18.83;52.36;98844.16;5036341;27;124595;-77
2023/09/28 05:19:58;;;;;;;;;;;18.60;85.60;;;18.83;52.25;98846.16;5058413;27;124154;-77
2023/09/28 05:22:24;;;;;;;;;;;18.60;85.80;;;18.84;52.41;98850.59;5027099;27;114502;-78
2023/09/28 05:24:53;;;;;;;;;;;18.50;85.80;;;18.85;52.27;98867.03;5054887;27;113847;-85
2023/09/28 05:27:20;;;;;;;;;;;18.60;85.70;;;18.88;51.93;98866.28;5045339;27;124293;-79
2023/09/28 05:29:46;;;;;;;;;;;18.60;85.70;;;18.90;52.18;98861.13;5025588;27;123778;-79
2023/09/28 05:32:12;;;;;;;;;;;18.60;85.60;;;18.93;51.86;98857.59;5026679;27;114384;-77
2023/09/28 05:34:39;;;;;;;;;;;18.70;85.60;;;18.96;51.84;98854.06;5027783;27;114049;-78
2023/09/28 05:37:05;;;;;;;;;;;18.70;85.60;;;19.02;52.06;98864.97;5026941;27;124401;-80
2023/09/28 05:39:32;;;;;;;;;;;18.70;85.60;;;19.02;51.83;98879.81;5024430;27;123799;-81
2023/09/28 05:41:59;;;;;;;;;;;18.70;85.40;;;19.03;51.80;98880.63;5025478;27;115593;-81
2023/09/28 05:44:27;;;;;;;;;;;18.70;85.40;;;19.06;51.77;98882.69;5036025;27;114597;-79
2023/09/28 05:46:53;;;;;;;;;;;18.70;85.60;;;19.07;51.97;98885.09;5037768;27;123425;-79
2023/09/28 05:49:20;;;;;;;;;;;18.70;85.60;;;19.12;51.67;98889.59;5038912;27;123937;-79
2023/09/28 05:51:46;;;;;;;;;;;18.70;85.60;;;19.13;51.77;98892.03;5031739;27;113358;-80
2023/09/28 05:54:13;;;;;;;;;;;18.80;85.70;;;19.13;51.93;98891.25;5032658;27;113870;-79
2023/09/28 05:56:41;;;;;;;;;;;18.80;85.90;;;19.10;52.22;98897.56;5031261;27;124012;-79
2023/09/28 05:59:08;;;;;;;;;;;18.80;86.10;;;19.07;52.21;98912.28;5028705;27;123048;-80
2023/09/28 06:01:37;;;;;;;;;;;18.70;86.00;;;19.07;52.14;98904.69;5034905;27;116543;-79
2023/09/28 06:04:04;;;;;;;;;;;18.70;86.00;;;19.09;52.06;98918.34;5073729;27;114992;-79
2023/09/28 06:06:30;;;;;;;;;;;18.80;86.20;;;19.09;52.20;98907.16;5067333;27;124241;-81
2023/09/28 06:08:56;;;;;;;;;;;18.80;86.20;;;19.12;52.19;98920.41;5022269;27;123849;-80
2023/09/28 06:11:24;;;;;;;;;;;18.80;86.40;;;19.07;52.30;98921.50;5060824;27;114551;-78
2023/09/28 06:13:50;;;;;;;;;;;18.80;86.50;;;19.06;52.19;98913.47;5017555;27;113948;-78
2023/09/28 06:16:16;;;;;;;;;;;18.70;86.40;;;19.04;52.49;98911.03;5030147;27;124390;-79
2023/09/28 06:18:44;;;;;;;;;;;18.70;86.70;;;18.99;52.54;98908.53;5029782;27;123871;-80
2023/09/28 06:21:10;;;;;;;;;;;18.60;86.80;;;18.96;52.68;98904.47;5049741;27;113851;-81
2023/09/28 06:23:36;;;;;;;;;;;18.60;86.70;;;18.99;52.46;98897.31;5023721;27;114384;-82
2023/09/28 06:26:03;;;;;;;;;;;18.70;86.90;;;18.96;52.56;98898.84;5025922;27;122977;-79
2023/09/28 06:28:31;;;;;;;;;;;18.60;86.90;;;18.85;53.11;98895.00;5010513;27;124573;-80
2023/09/28 06:30:59;;;;;;;;;;;18.60;87.60;;;18.72;53.46;98894.28;5023030;27;115468;-81
2023/09/28 06:33:25;;;;;;;;;;;18.40;87.80;;;18.63;53.52;98898.47;5037388;27;114929;-79
2023/09/28 06:35:52;;;;;;;;;;;18.40;88.10;;;18.56;54.06;98901.91;5037440;27;125048;-82
2023/09/28 06:38:18;;;;;;;;;;;18.30;88.90;;;18.57;54.13;98905.53;5025374;27;124369;-81
2023/09/28 06:40:48;;;;;;;;;;;18.30;88.90;;;18.58;54.13;98909.94;5056569;27;113562;-81
2023/09/28 06:43:15;;;;;;;;;;;18.30;89.00;;;18.63;53.71;98913.28;5029890;27;113891;-81
2023/09/28 06:45:42;;;;;;;;;;;18.30;88.90;;;18.73;53.36;98917.50;5031767;27;124180;-81
2023/09/28 06:48:11;;;;;;;;;;;18.30;88.80;;;18.83;53.21;98916.16;5028606;27;126324;-81
2023/09/28 06:50:43;;;;;;;;;;;18.40;89.30;;;18.93;52.96;98922.00;5063198;27;114288;-82
2023/09/28 06:53:09;;;;;;;;;;;18.40;88.70;;;19.07;52.86;98934.69;5033108;27;113445;-80
2023/09/28 06:55:36;;;;;;;;;;;18.50;88.50;;;19.20;52.74;98928.59;5031503;27;123517;-82
2023/09/28 06:58:06;;;;;;;;;;;18.60;88.40;;;19.37;52.35;98932.13;5028616;28;123890;-80
2023/09/28 07:00:37;;;;;;;;;;;18.80;88.30;;;19.56;51.76;98928.56;5027913;27;114436;-80
2023/09/28 07:03:03;;;;;;;;;;;18.90;88.10;;;19.71;51.59;98924.88;5065799;27;113216;-79
2023/09/28 07:05:30;;;;;;;;;;;19.00;87.70;;;19.83;51.06;98924.72;5013492;28;123399;-81
2023/09/28 07:07:56;;;;;;;;;;;19.10;87.50;;;19.96;51.33;98924.53;5031412;27;123977;-81
2023/09/28 07:10:22;;;;;;;;;;;19.30;87.40;;;20.10;50.94;98929.63;5031415;27;114349;-80
2023/09/28 07:12:51;;;;;;;;;;;19.40;87.10;;;20.24;50.33;98927.84;5026106;27;113973;-81
2023/09/28 07:15:17;;;;;;;;;;;19.50;86.70;;;20.40;49.97;98930.53;5025240;27;123523;-81
2023/09/28 07:17:44;;;;;;;;;;;19.60;86.40;;;20.52;49.57;98924.75;5027892;27;124034;-80
2023/09/28 07:20:14;;;;;;;;;;;19.80;85.80;;;20.61;49.23;98923.69;5028959;27;115411;-80
2023/09/28 07:22:41;;;;;;;;;;;19.80;85.20;;;20.61;49.04;98921.69;5028561;27;114509;-80
2023/09/28 07:25:10;;;;;;;;;;;19.90;85.00;;;20.62;48.89;98928.91;5028312;27;124348;-81
2023/09/28 07:27:36;;;;;;;;;;;20.00;84.60;;;20.57;48.80;98923.63;5029071;27;124229;-81
2023/09/28 07:30:05;;;;;;;;;;;20.00;84.20;;;20.50;49.20;98931.91;5028204;27;114448;-79
2023/09/28 07:32:34;;;;;;;;;;;20.00;84.10;;;20.48;48.98;98929.47;5032327;27;114063;-80
2023/09/28 07:35:02;;;;;;;;;;;20.00;84.40;;;20.57;49.00;98934.03;5030249;27;124283;-80
2023/09/28 07:37:28;;;;;;;;;;;20.00;84.40;;;20.58;48.98;98935.66;5030681;27;123366;-80
2023/09/28 07:39:55;;;;;;;;;;;20.00;84.10;;;20.63;48.88;98938.16;5047497;27;114385;-80
2023/09/28 07:42:21;;;;;;;;;;;20.10;84.10;;;20.66;48.89;98943.00;5027281;27;113779;-79
2023/09/28 07:44:51;;;;;;;;;;;20.10;84.00;;;20.72;48.89;98941.50;5030176;27;124363;-80
2023/09/28 07:47:21;;;;;;;;;;;20.20;84.00;;;20.76;48.44;98944.38;5028580;27;123994;-81
2023/09/28 07:49:47;;;;;;;;;;;20.20;83.80;;;20.80;48.74;98948.88;5028127;27;114836;-80
2023/09/28 07:52:14;;;;;;;;;;;20.20;83.70;;;20.87;48.49;98956.56;5030072;27;113144;-81
2023/09/28 07:54:40;;;;;;;;;;;20.30;83.70;;;20.92;48.47;98945.03;5026971;27;124863;-80
2023/09/28 07:57:07;;;;;;;;;;;20.40;83.50;;;20.96;48.27;98963.56;5032052;27;125147;-80
2023/09/28 07:59:36;;;;;;;;;;;20.40;83.40;;;20.98;47.89;98963.16;5077126;27;114417;-80
2023/09/28 08:02:04;;;;;;;;;;;20.40;83.10;;;21.02;48.23;98960.41;5032628;27;114122;-79
2023/09/28 08:04:31;;;;;;;;;;;20.50;83.00;;;21.02;48.15;98957.63;5028529;28;125002;-79
2023/09/28 08:06:57;;;;;;;;;;;20.50;83.00;;;21.04;48.15;98949.63;5027009;27;123918;-80
2023/09/28 08:09:24;;;;;;;;;;;20.60;83.00;;;21.11;48.31;98947.69;5024197;27;115361;-80
2023/09/28 08:11:51;;;;;;;;;;;20.70;83.10;;;21.21;47.85;98949.06;5032097;27;114926;-80
2023/09/28 08:14:17;;;;;;;;;;;20.70;82.90;;;21.31;47.56;98951.22;5042933;27;124856;-80
2023/09/28 08:16:48;;;;;;;;;;;20.70;82.70;;;21.35;47.61;98954.06;5072124;27;123051;-80
2023/09/28 08:19:14;;;;;;;;;;;20.70;82.60;;;21.36;47.58;98947.25;5059925;27;114685;-79
2023/09/28 08:21:41;;;;;;;;;;;20.80;82.50;;;21.40;47.68;98953.75;5036318;27;113736;-80
2023/09/28 08:24:08;;;;;;;;;;;20.80;82.50;;;21.45;47.47;98959.03;5035806;27;124116;-79
2023/09/28 08:26:38;;;;;;;;;;;20.90;82.30;;;21.51;47.11;98946.25;5012686;27;125453;-79
2023/09/28 08:29:07;;;;;;;;;;;21.00;82.40;;;21.57;47.37;98941.94;5027594;27;114407;-79
2023/09/28 08:31:34;;;;;;;;;;;21.00;82.10;;;21.61;47.28;98941.97;5026310;27;114516;-79
2023/09/28 08:34:03;;;;;;;;;;;21.10;81.90;;;21.60;46.83;98958.03;5026085;27;124816;-80
2023/09/28 08:36:32;;;;;;;;;;;21.10;81.50;;;21.54;47.22;98964.38;5025538;27;124213;-80
2023/09/28 08:38:58;;;;;;;;;;;21.10;81.50;;;21.54;47.22;98967.19;5028774;27;115299;-80
2023/09/28 08:41:43;;;;;;;;;;;21.00;81.40;;;21.53;47.35;98957.94;5032146;27;111862;-79
2023/09/28 08:44:10;;;;;;;;;;;21.10;81.50;;;21.60;47.38;98968.47;5057333;27;123581;-80
2023/09/28 08:46:39;;;;;;;;;;;21.20;81.60;;;21.68;46.88;98964.56;5067093;27;124618;-79
2023/09/28 08:49:10;;;;;;;;;;;21.20;81.30;;;21.71;46.69;98957.34;5033541;27;114727;-79
2023/09/28 08:51:38;;;;;;;;;;;21.20;81.20;;;21.73;46.74;98963.41;5031192;27;113662;-78
2023/09/28 08:54:05;;;;;;;;;;;21.20;81.20;;;21.76;46.75;98957.00;5016414;27;123839;-79
2023/09/28 08:56:36;;;;;;;;;;;21.20;81.20;;;21.79;46.92;98965.50;5031088;27;124674;-79
2023/09/28 08:59:03;;;;;;;;;;;21.20;81.40;;;21.82;47.14;98958.31;5059662;27;115343;-79
2023/09/28 09:01:31;;;;;;;;;;;21.30;81.50;;;21.91;46.90;98960.81;5034032;27;115455;-80
2023/09/28 09:03:59;;;;;;;;;;;21.40;81.60;;;21.99;47.04;98960.50;5027284;27;124601;-79
2023/09/28 09:06:29;;;;;;;;;;;21.50;81.40;;;22.09;46.38;98950.56;5028632;27;124565;-79
2023/09/28 09:09:01;;;;;;;;;;;21.60;81.10;;;22.19;46.29;98949.06;5025092;27;115162;-80
2023/09/28 09:11:29;;;;;;;;;;;21.60;80.90;;;22.27;46.16;98957.22;5034123;27;113694;-79
2023/09/28 09:13:55;;;;;;;;;;;21.70;80.60;;;22.37;45.99;98954.88;5026201;27;124222;-79
2023/09/28 09:16:27;;;;;;;;;;;21.80;80.50;;;22.45;45.48;98953.75;5025884;27;124453;-79
2023/09/28 09:18:56;;;;;;;;;;;21.90;80.10;;;22.51;45.28;98955.00;5036693;27;114602;-79
2023/09/28 09:21:38;;;;;;;;;;;22.00;79.70;;;22.58;45.34;98949.44;5028744;27;114007;-79
2023/09/28 09:24:10;;;;;;;;;;;22.00;79.40;;;22.65;45.04;98945.88;5013380;27;125078;-79
2023/09/28 09:26:47;;;;;;;;;;;22.10;79.20;;;22.72;44.67;98940.28;5006107;28;124616;-79
2023/09/28 09:29:15;;;;;;;;;;;22.20;78.80;;;22.80;44.48;98947.59;5052758;27;114693;-79
2023/09/28 09:31:47;;;;;;;;;;;22.30;78.50;;;22.87;44.46;98942.00;5016398;27;113582;-79
2023/09/28 09:34:18;;;;;;;;;;;22.30;78.30;;;22.96;44.28;98943.69;5059586;27;124547;-77
2023/09/28 09:36:57;;;;;;;;;;;22.40;78.00;;;23.03;44.08;98946.59;5026280;28;124391;-78
2023/09/28 09:39:30;;;;;;;;;;;22.50;77.90;;;23.09;43.69;98954.25;5027330;28;113810;-78
2023/09/28 09:41:57;;;;;;;;;;;22.50;77.10;;;23.14;43.66;98945.44;5059579;27;113803;-78
2023/09/28 09:44:26;;;;;;;;;;;22.60;76.90;;;23.22;43.56;98937.03;5036589;27;124831;-77
2023/09/28 09:46:53;;;;;;;;;;;22.70;77.00;;;23.28;43.43;98946.72;5040047;27;123368;-78
2023/09/28 09:49:23;;;;;;;;;;;22.70;76.70;;;23.33;43.57;98937.88;5029718;27;114901;-77
2023/09/28 09:51:51;;;;;;;;;;;22.80;76.90;;;23.40;43.39;98946.41;5030231;27;115067;-77
2023/09/28 09:54:21;;;;;;;;;;;22.80;76.70;;;23.47;43.31;98939.97;5028605;27;124345;-78
2023/09/28 09:56:49;;;;;;;;;;;22.90;76.40;;;23.53;43.25;98947.63;5034761;27;123681;-77
2023/09/28 09:59:17;;;;;;;;;;;23.00;76.50;;;23.60;43.24;98946.88;5071705;27;114460;-78
2023/09/28 10:01:47;;;;;;;;;;;23.10;76.40;;;23.68;42.88;98954.16;5078507;27;114360;-78
2023/09/28 10:04:18;;;;;;;;;;;23.20;76.00;;;23.77;42.30;98951.78;5036922;27;124915;-78
2023/09/28 10:06:52;;;;;;;;;;;23.20;75.20;;;23.87;42.68;98938.13;5041088;27;124085;-78
2023/09/28 10:09:22;;;;;;;;;;;23.30;75.50;;;23.94;42.64;98944.63;5043145;27;113649;-78
2023/09/28 10:11:52;;;;;;;;;;;23.40;75.60;;;24.03;42.58;98936.56;5033647;27;112612;-77
2023/09/28 10:14:20;;;;;;;;;;;23.50;75.40;;;24.13;42.08;98931.34;5078283;27;124594;-78
2023/09/28 10:16:54;;;;;;;;;;;23.50;75.00;;;24.20;41.66;98931.34;5049589;27;124309;-78
2023/09/28 10:19:26;;;;;;;;;;;23.60;74.00;;;24.30;41.35;98932.56;5040108;27;114581;-78
2023/09/28 10:21:55;;;;;;;;;;;23.70;73.90;;;24.38;41.06;98932.19;5028724;27;113662;-78
2023/09/28 10:24:32;;;;;;;;;;;23.80;73.30;;;24.47;40.42;98943.09;5043532;27;124929;-78
2023/09/28 10:27:07;;;;;;;;;;;23.90;72.50;;;24.57;40.46;98935.84;5028475;27;124033;-78
2023/09/28 10:29:34;;;;;;;;;;;24.00;72.00;;;24.67;39.96;98935.84;5062799;27;114508;-78
2023/09/28 10:32:02;;;;;;;;;;;24.10;71.30;;;24.77;40.12;98927.75;5077274;27;113751;-78
2023/09/28 10:34:33;;;;;;;;;;;24.20;71.80;;;24.89;40.05;98930.19;5029056;27;124233;-78
2023/09/28 10:37:13;;;;;;;;;;;24.30;71.50;;;25.01;39.71;98917.63;5018016;27;124385;-78
2023/09/28 10:39:42;;;;;;;;;;;24.40;71.30;;;25.13;39.91;98918.00;5065708;27;116039;-78
2023/09/28 10:42:15;;;;;;;;;;;24.50;71.20;;;25.26;39.08;98921.25;5038839;27;113763;-78
2023/09/28 10:44:50;;;;;;;;;;;24.60;70.40;;;25.37;39.25;98921.22;5040668;27;124115;-78
2023/09/28 10:47:20;;;;;;;;;;;24.80;70.10;;;25.49;38.66;98917.13;5017281;27;123945;-77
2023/09/28 10:49:48;;;;;;;;;;;24.90;69.10;;;25.61;38.12;98927.19;5041670;27;114500;-77
2023/09/28 10:52:16;;;;;;;;;;;25.00;68.90;;;25.73;38.06;98918.22;5040856;27;113778;-79
2023/09/28 10:54:44;;;;;;;;;;;25.10;68.30;;;25.83;37.96;98908.88;5030161;27;124360;-78
2023/09/28 10:57:12;;;;;;;;;;;25.20;67.90;;;25.96;37.19;98915.69;5030400;27;123671;-78
2023/09/28 10:59:41;;;;;;;;;;;25.40;67.30;;;26.09;37.18;98915.22;5031650;27;112583;-79
2023/09/28 11:02:12;;;;;;;;;;;25.50;66.50;;;26.21;36.22;98906.22;5028754;27;113954;-79
2023/09/28 11:04:41;;;;;;;;;;;25.60;65.70;;;26.35;36.46;98905.31;5032222;27;122854;-78
2023/09/28 11:07:07;;;;;;;;;;;26.10;65.20;;;26.49;35.44;98898.72;5042139;27;124026;-79
2023/09/28 11:09:37;;;;;;;;;;;25.80;64.30;;;26.59;35.21;98901.50;5028290;27;114282;-79
2023/09/28 11:12:09;;;;;;;;;;;25.90;63.00;;;26.71;35.25;98893.72;5027446;27;113941;-79
2023/09/28 11:14:40;;;;;;;;;;;26.00;63.00;;;26.81;34.54;98892.78;5029265;27;124336;-79